createdAt,value
2023-03-15T00:01:46.753Z,99135.72
2023-03-15T00:04:14.526Z,99133.88
2023-03-15T00:06:41.213Z,99145.47
2023-03-15T00:09:08.139Z,99138.75
2023-03-15T00:11:34.759Z,99150.31
2023-03-15T00:14:02.518Z,99154.03
2023-03-15T00:16:29.574Z,99158.88
2023-03-15T00:18:56.648Z,99151.13
2023-03-15T00:21:24.009Z,99154.16
2023-03-15T00:23:51.090Z,99158.19
2023-03-15T00:26:18.110Z,99150.81
2023-03-15T00:28:44.897Z,99161.56
2023-03-15T00:31:23.711Z,99146.25
2023-03-15T00:33:53.757Z,99130.13
2023-03-15T00:36:24.480Z,99143.13
2023-03-15T00:38:53.436Z,99130.69
2023-03-15T00:41:21.370Z,99128.47
2023-03-15T00:43:48.021Z,99122.56
2023-03-15T00:46:15.783Z,99121.41
2023-03-15T00:48:42.852Z,99099.19
2023-03-15T00:51:14.883Z,99105.94
2023-03-15T00:53:43.902Z,99105.22
2023-03-15T00:56:13.682Z,99104.56
2023-03-15T00:58:41.000Z,99102.88
2023-03-15T01:01:13.598Z,99112.09
2023-03-15T01:03:41.904Z,99107.03
2023-03-15T01:06:14.549Z,99109.22
2023-03-15T01:08:41.439Z,99110.53
2023-03-15T01:11:17.291Z,99121.13
2023-03-15T01:13:44.430Z,99125.50
2023-03-15T01:16:12.916Z,99126.66
2023-03-15T01:18:41.296Z,99114.41
2023-03-15T01:21:12.564Z,99136.38
2023-03-15T01:23:40.246Z,99131.84
2023-03-15T01:26:11.348Z,99133.16
2023-03-15T01:28:37.961Z,99137.16
2023-03-15T01:31:04.917Z,99139.84
2023-03-15T01:33:31.849Z,99138.00
2023-03-15T01:36:03.534Z,99136.50
2023-03-15T01:38:30.541Z,99135.44
2023-03-15T01:40:57.136Z,99126.69
2023-03-15T01:43:25.676Z,99122.34
2023-03-15T01:46:06.544Z,99125.19
2023-03-15T01:48:46.662Z,99133.41
2023-03-15T01:51:39.004Z,99128.19
2023-03-15T01:54:20.805Z,99133.72
2023-03-15T01:56:59.155Z,99121.44
2023-03-15T01:59:36.837Z,99132.38
2023-03-15T02:02:05.127Z,99128.81
2023-03-15T02:04:41.692Z,99125.47
2023-03-15T02:07:09.654Z,99135.50
2023-03-15T02:09:47.765Z,99126.63
2023-03-15T02:12:14.334Z,99127.28
2023-03-15T02:14:41.884Z,99126.63
2023-03-15T02:17:08.476Z,99127.78
2023-03-15T02:20:20.077Z,99129.63
2023-03-15T02:22:53.653Z,99138.81
2023-03-15T02:25:26.509Z,99129.09
2023-03-15T02:27:54.059Z,99126.09
2023-03-15T02:30:20.966Z,99118.06
2023-03-15T02:32:49.334Z,99117.56
2023-03-15T02:35:28.532Z,99124.75
2023-03-15T02:37:55.304Z,99119.88
2023-03-15T02:40:23.852Z,99128.47
2023-03-15T02:42:57.687Z,99120.72
2023-03-15T02:45:26.435Z,99119.88
2023-03-15T02:47:53.610Z,99130.47
2023-03-15T02:50:20.211Z,99134.16
2023-03-15T02:52:46.894Z,99132.63
2023-03-15T02:55:13.491Z,99146.06
2023-03-15T02:57:40.074Z,99141.50
2023-03-15T03:00:14.322Z,99142.66
2023-03-15T03:02:42.347Z,99139.81
2023-03-15T03:05:09.627Z,99140.97
2023-03-15T03:07:36.626Z,99135.47
2023-03-15T03:10:07.868Z,99133.59
2023-03-15T03:12:34.455Z,99122.19
2023-03-15T03:15:02.684Z,99138.00
2023-03-15T03:17:29.257Z,99121.53
2023-03-15T03:19:55.909Z,99107.41
2023-03-15T03:22:25.840Z,99117.47
2023-03-15T03:24:52.574Z,99122.31
2023-03-15T03:27:19.262Z,99123.16
2023-03-15T03:29:45.967Z,99124.31
2023-03-15T03:32:12.746Z,99115.88
2023-03-15T03:34:39.366Z,99128.28
2023-03-15T03:37:06.034Z,99132.00
2023-03-15T03:39:32.592Z,99123.09
2023-03-15T03:41:59.186Z,99120.72
2023-03-15T03:44:25.754Z,99113.66
2023-03-15T03:46:52.322Z,99126.09
2023-03-15T03:49:18.918Z,99119.72
2023-03-15T03:51:45.480Z,99109.50
2023-03-15T03:54:12.056Z,99112.88
2023-03-15T03:56:39.710Z,99114.56
2023-03-15T03:59:06.349Z,99110.19
2023-03-15T04:01:33.676Z,99108.22
2023-03-15T04:04:00.253Z,99108.50
2023-03-15T04:06:26.827Z,99113.03
2023-03-15T04:08:53.462Z,99122.25
2023-03-15T04:11:20.233Z,99128.78
2023-03-15T04:13:47.517Z,99138.66
2023-03-15T04:16:14.719Z,99135.81
2023-03-15T04:18:41.594Z,99133.44
2023-03-15T04:21:10.802Z,99143.63
2023-03-15T04:23:39.312Z,99145.66
2023-03-15T04:26:06.045Z,99153.00
2023-03-15T04:28:32.704Z,99145.78
2023-03-15T04:30:59.442Z,99145.13
2023-03-15T04:33:26.720Z,99151.63
2023-03-15T04:35:53.330Z,99161.97
2023-03-15T04:38:26.527Z,99153.19
2023-03-15T04:40:56.878Z,99154.19
2023-03-15T04:43:24.506Z,99170.09
2023-03-15T04:45:51.789Z,99181.25
2023-03-15T04:48:18.377Z,99186.41
2023-03-15T04:50:45.024Z,99198.13
2023-03-15T04:53:11.585Z,99202.78
2023-03-15T04:55:38.195Z,99204.06
2023-03-15T04:58:04.820Z,99206.53
2023-03-15T05:00:31.558Z,99211.50
2023-03-15T05:02:58.161Z,99206.88
2023-03-15T05:05:24.848Z,99197.44
2023-03-15T05:07:51.776Z,99193.41
2023-03-15T05:10:19.497Z,99189.31
2023-03-15T05:12:46.442Z,99185.56
2023-03-15T05:15:13.353Z,99188.13
2023-03-15T05:17:39.945Z,99199.44
2023-03-15T05:20:12.678Z,99194.84
2023-03-15T05:22:41.004Z,99189.63
2023-03-15T05:25:08.859Z,99182.59
2023-03-15T05:27:35.696Z,99171.03
2023-03-15T05:30:05.846Z,99185.84
2023-03-15T05:32:34.772Z,99190.25
2023-03-15T05:35:02.382Z,99193.66
2023-03-15T05:37:29.045Z,99194.53
2023-03-15T05:39:56.120Z,99185.81
2023-03-15T05:42:26.193Z,99191.03
2023-03-15T05:44:56.933Z,99192.00
2023-03-15T05:47:23.786Z,99199.19
2023-03-15T05:49:50.653Z,99196.22
2023-03-15T05:52:17.216Z,99191.84
2023-03-15T05:54:44.021Z,99190.44
2023-03-15T05:57:10.794Z,99194.97
2023-03-15T05:59:37.402Z,99200.59
2023-03-15T06:02:04.234Z,99198.91
2023-03-15T06:04:30.928Z,99214.25
2023-03-15T06:06:57.889Z,99207.91
2023-03-15T06:09:24.604Z,99217.22
2023-03-15T06:11:51.169Z,99213.00
2023-03-15T06:14:17.894Z,99212.03
2023-03-15T06:16:44.514Z,99221.47
2023-03-15T06:19:11.118Z,99227.13
2023-03-15T06:21:37.772Z,99236.84
2023-03-15T06:24:04.502Z,99237.84
2023-03-15T06:26:31.048Z,99238.53
2023-03-15T06:28:57.662Z,99251.47
2023-03-15T06:31:24.235Z,99245.84
2023-03-15T06:33:50.791Z,99251.31
2023-03-15T06:36:17.391Z,99255.53
2023-03-15T06:38:43.978Z,99256.41
2023-03-15T06:41:12.515Z,99254.41
2023-03-15T06:43:39.293Z,99255.28
2023-03-15T06:46:05.927Z,99251.59
2023-03-15T06:48:32.526Z,99255.53
2023-03-15T06:50:59.170Z,99259.47
2023-03-15T06:53:25.705Z,99268.47
2023-03-15T06:55:52.336Z,99271.88
2023-03-15T06:58:19.153Z,99275.38
2023-03-15T07:00:45.845Z,99271.88
2023-03-15T07:03:12.376Z,99277.22
2023-03-15T07:05:39.066Z,99279.75
2023-03-15T07:08:06.010Z,99286.78
2023-03-15T07:10:32.604Z,99296.22
2023-03-15T07:12:59.218Z,99298.88
2023-03-15T07:15:25.788Z,99296.22
2023-03-15T07:17:52.340Z,99302.41
2023-03-15T07:20:19.055Z,99307.66
2023-03-15T07:22:45.697Z,99316.13
2023-03-15T07:25:12.283Z,99312.03
2023-03-15T07:27:38.819Z,99315.69
2023-03-15T07:30:07.329Z,99326.53
2023-03-15T07:32:34.068Z,99319.50
2023-03-15T07:35:00.804Z,99329.34
2023-03-15T07:37:29.311Z,99328.53
2023-03-15T07:39:55.940Z,99324.31
2023-03-15T07:42:22.521Z,99321.91
2023-03-15T07:44:49.306Z,99322.03
2023-03-15T07:47:15.880Z,99320.47
2023-03-15T07:49:42.478Z,99315.56
2023-03-15T07:52:09.176Z,99305.97
2023-03-15T07:54:35.761Z,99311.63
2023-03-15T07:57:02.400Z,99311.47
2023-03-15T07:59:29.147Z,99304.56
2023-03-15T08:01:55.750Z,99308.53
2023-03-15T08:04:22.415Z,99323.88
2023-03-15T08:06:48.946Z,99334.88
2023-03-15T08:09:15.528Z,99326.84
2023-03-15T08:11:43.444Z,99329.53
2023-03-15T08:14:11.342Z,99327.66
2023-03-15T08:16:37.965Z,99328.53
2023-03-15T08:19:04.596Z,99327.84
2023-03-15T08:21:33.711Z,99332.06
2023-03-15T08:24:00.966Z,99335.69
2023-03-15T08:26:27.862Z,99342.59
2023-03-15T08:28:54.441Z,99334.31
2023-03-15T08:31:21.696Z,99343.03
2023-03-15T08:33:48.371Z,99343.34
2023-03-15T08:36:15.029Z,99350.38
2023-03-15T08:38:41.865Z,99360.78
2023-03-15T08:41:08.428Z,99361.75
2023-03-15T08:43:35.054Z,99365.44
2023-03-15T08:46:02.219Z,99369.94
2023-03-15T08:48:29.691Z,99374.16
2023-03-15T08:50:57.517Z,99384.59
2023-03-15T08:53:24.147Z,99395.00
2023-03-15T08:55:50.707Z,99399.81
2023-03-15T08:58:17.256Z,99405.59
2023-03-15T09:00:43.848Z,99408.56
2023-03-15T09:03:11.390Z,99422.06
2023-03-15T09:05:37.967Z,99426.69
2023-03-15T09:08:04.706Z,99431.47
2023-03-15T09:10:31.410Z,99429.09
2023-03-15T09:12:58.141Z,99434.69
2023-03-15T09:15:24.765Z,99451.88
2023-03-15T09:17:51.779Z,99461.03
2023-03-15T09:20:21.938Z,99457.66
2023-03-15T09:22:55.849Z,99464.69
2023-03-15T09:25:23.513Z,99465.97
2023-03-15T09:27:50.666Z,99474.94
2023-03-15T09:30:17.695Z,99476.06
2023-03-15T09:32:44.623Z,99481.41
2023-03-15T09:35:15.212Z,99487.50
2023-03-15T09:37:42.604Z,99497.91
2023-03-15T09:40:45.016Z,99496.34
2023-03-15T09:43:48.624Z,99490.75
2023-03-15T09:46:29.951Z,99496.91
2023-03-15T09:49:04.739Z,99498.63
2023-03-15T09:51:48.746Z,99494.97
2023-03-15T09:54:20.867Z,99501.16
2023-03-15T09:57:15.024Z,99502.13
2023-03-15T09:59:45.425Z,99493.41
2023-03-15T10:02:31.689Z,99494.25
2023-03-15T10:05:05.945Z,99504.13
2023-03-15T10:07:33.054Z,99496.22
2023-03-15T10:09:59.814Z,99499.47
2023-03-15T10:12:40.798Z,99494.69
2023-03-15T10:15:16.806Z,99499.91
2023-03-15T10:18:04.112Z,99500.78
2023-03-15T10:20:45.205Z,99515.72
2023-03-15T10:23:19.333Z,99506.81
2023-03-15T10:25:49.242Z,99510.19
2023-03-15T10:28:34.781Z,99518.53
2023-03-15T10:31:22.368Z,99515.44
2023-03-15T10:33:57.279Z,99535.47
2023-03-15T10:36:25.373Z,99538.72
2023-03-15T10:38:52.440Z,99537.75
2023-03-15T10:41:37.264Z,99538.19
2023-03-15T10:44:28.548Z,99537.50
2023-03-15T10:47:23.112Z,99544.13
2023-03-15T10:49:56.708Z,99547.53
2023-03-15T10:52:26.392Z,99547.69
2023-03-15T10:54:58.770Z,99551.66
2023-03-15T10:57:35.111Z,99560.81
2023-03-15T11:00:09.781Z,99561.38
2023-03-15T11:02:37.389Z,99570.00
2023-03-15T11:05:03.923Z,99568.59
2023-03-15T11:07:35.318Z,99567.19
2023-03-15T11:10:03.675Z,99576.22
2023-03-15T11:12:33.341Z,99577.19
2023-03-15T11:15:07.738Z,99585.53
2023-03-15T11:17:42.113Z,99577.75
2023-03-15T11:20:26.076Z,99585.09
2023-03-15T11:22:54.123Z,99583.81
2023-03-15T11:25:24.985Z,99593.97
2023-03-15T11:27:53.642Z,99576.19
2023-03-15T11:30:27.142Z,99587.34
2023-03-15T11:32:53.953Z,99589.72
2023-03-15T11:35:31.182Z,99587.50
2023-03-15T11:38:14.711Z,99590.72
2023-03-15T11:40:51.565Z,99596.66
2023-03-15T11:43:24.625Z,99581.84
2023-03-15T11:45:58.998Z,99583.50
2023-03-15T11:48:28.002Z,99583.91
2023-03-15T11:50:55.519Z,99580.63
2023-03-15T11:53:25.227Z,99590.34
2023-03-15T11:55:54.811Z,99593.69
2023-03-15T11:58:34.737Z,99592.97
2023-03-15T12:01:11.360Z,99603.53
2023-03-15T12:03:44.388Z,99606.78
2023-03-15T12:06:13.763Z,99612.31
2023-03-15T12:08:43.299Z,99603.09
2023-03-15T12:11:37.600Z,99618.31
2023-03-15T12:14:06.751Z,99617.59
2023-03-15T12:16:41.948Z,99613.69
2023-03-15T12:19:16.814Z,99608.84
2023-03-15T12:21:53.536Z,99606.47
2023-03-15T12:24:30.869Z,99613.31
2023-03-15T12:27:06.804Z,99618.00
2023-03-15T12:29:36.141Z,99613.16
2023-03-15T12:32:02.720Z,99607.00
2023-03-15T12:34:49.712Z,99606.63
2023-03-15T12:37:27.457Z,99610.56
2023-03-15T12:40:14.998Z,99612.25
2023-03-15T12:42:41.532Z,99613.78
2023-03-15T12:45:17.397Z,99613.41
2023-03-15T12:48:24.728Z,99613.19
2023-03-15T12:50:55.089Z,99623.38
2023-03-15T12:53:38.371Z,99618.81
2023-03-15T12:56:30.014Z,99627.41
2023-03-15T12:59:05.000Z,99631.03
2023-03-15T13:01:33.554Z,99625.47
2023-03-15T13:04:03.540Z,99622.41
2023-03-15T13:06:52.390Z,99633.56
2023-03-15T13:09:49.445Z,99632.50
2023-03-15T13:12:49.966Z,99632.63
2023-03-15T13:15:24.023Z,99637.91
2023-03-15T13:17:50.569Z,99648.03
2023-03-15T13:20:44.652Z,99645.84
2023-03-15T13:23:29.522Z,99650.56
2023-03-15T13:26:29.676Z,99658.66
2023-03-15T13:29:06.305Z,99667.94
2023-03-15T13:31:33.878Z,99666.78
2023-03-15T13:34:22.267Z,99664.16
2023-03-15T13:36:55.097Z,99672.59
2023-03-15T13:39:33.354Z,99665.19
2023-03-15T13:42:05.583Z,99666.41
2023-03-15T13:44:33.658Z,99675.31
2023-03-15T13:47:00.956Z,99681.84
2023-03-15T13:49:32.912Z,99676.69
2023-03-15T13:52:02.463Z,99687.22
2023-03-15T13:54:34.231Z,99688.47
2023-03-15T13:57:05.021Z,99699.00
2023-03-15T13:59:43.050Z,99703.56
2023-03-15T14:02:44.536Z,99705.91
2023-03-15T14:05:18.906Z,99709.81
2023-03-15T14:07:48.509Z,99718.91
2023-03-15T14:10:31.257Z,99722.16
2023-03-15T14:13:14.749Z,99725.31
2023-03-15T14:15:44.882Z,99722.00
2023-03-15T14:18:11.370Z,99728.69
2023-03-15T14:20:46.112Z,99736.47
2023-03-15T14:23:16.094Z,99743.91
2023-03-15T14:25:43.462Z,99729.19
2023-03-15T14:28:16.556Z,99748.78
2023-03-15T14:30:52.463Z,99745.81
2023-03-15T14:33:31.856Z,99741.88
2023-03-15T14:36:03.482Z,99751.25
2023-03-15T14:38:36.163Z,99748.03
2023-03-15T14:41:22.939Z,99758.88
2023-03-15T14:43:49.550Z,99752.13
2023-03-15T14:46:16.322Z,99763.44
2023-03-15T14:48:43.041Z,99759.91
2023-03-15T14:51:18.291Z,99759.50
2023-03-15T14:53:46.677Z,99770.91
2023-03-15T14:56:14.279Z,99767.66
2023-03-15T14:58:42.242Z,99769.66
2023-03-15T15:01:13.531Z,99771.75
2023-03-15T15:03:50.134Z,99780.53
2023-03-15T15:06:16.846Z,99782.06
2023-03-15T15:08:46.359Z,99783.91
2023-03-15T15:11:14.177Z,99791.25
2023-03-15T15:13:41.154Z,99787.31
2023-03-15T15:16:08.307Z,99799.88
2023-03-15T15:18:36.499Z,99805.38
2023-03-15T15:21:12.048Z,99807.50
2023-03-15T15:23:56.914Z,99818.53
2023-03-15T15:26:27.041Z,99822.34
2023-03-15T15:28:54.325Z,99829.25
2023-03-15T15:31:23.238Z,99816.97
2023-03-15T15:33:51.386Z,99835.28
2023-03-15T15:36:32.496Z,99821.41
2023-03-15T15:39:06.387Z,99847.53
2023-03-15T15:41:33.910Z,99842.00
2023-03-15T15:44:01.107Z,99843.25
2023-03-15T15:46:28.057Z,99848.75
2023-03-15T15:48:54.828Z,99850.59
2023-03-15T15:51:34.533Z,99852.69
2023-03-15T15:54:02.190Z,99859.47
2023-03-15T15:56:44.186Z,99863.50
2023-03-15T15:59:14.881Z,99858.28
2023-03-15T16:01:56.578Z,99866.59
2023-03-15T16:04:26.044Z,99878.31
2023-03-15T16:06:56.158Z,99878.69
2023-03-15T16:09:23.214Z,99874.44
2023-03-15T16:11:49.842Z,99882.66
2023-03-15T16:14:16.476Z,99895.59
2023-03-15T16:16:43.481Z,99891.88
2023-03-15T16:19:10.093Z,99888.75
2023-03-15T16:21:44.132Z,99900.97
2023-03-15T16:24:44.087Z,99905.00
2023-03-15T16:27:23.226Z,99911.88
2023-03-15T16:29:50.513Z,99920.56
2023-03-15T16:32:37.220Z,99918.38
2023-03-15T16:35:15.434Z,99917.91
2023-03-15T16:37:43.386Z,99932.53
2023-03-15T16:40:18.575Z,99922.50
2023-03-15T16:42:45.105Z,99936.25
2023-03-15T16:45:13.472Z,99937.59
2023-03-15T16:47:40.062Z,99939.22
2023-03-15T16:50:06.970Z,99945.06
2023-03-15T16:52:33.611Z,99951.53
2023-03-15T16:55:01.068Z,99958.34
2023-03-15T16:57:27.841Z,99962.38
2023-03-15T16:59:54.390Z,99969.69
2023-03-15T17:02:24.142Z,99986.22
2023-03-15T17:04:52.506Z,99978.56
2023-03-15T17:07:25.297Z,99977.22
2023-03-15T17:09:51.938Z,99984.75
2023-03-15T17:12:25.715Z,99990.59
2023-03-15T17:14:55.396Z,99986.44
2023-03-15T17:17:22.044Z,99990.59
2023-03-15T17:19:48.580Z,99992.06
2023-03-15T17:22:19.235Z,99994.13
2023-03-15T17:24:47.261Z,100001.75
2023-03-15T17:27:26.177Z,99996.06
2023-03-15T17:29:52.944Z,100000.53
2023-03-15T17:32:19.681Z,100010.63
2023-03-15T17:34:47.432Z,100009.50
2023-03-15T17:37:15.359Z,100017.13
2023-03-15T17:39:42.776Z,100026.19
2023-03-15T17:42:18.758Z,100031.03
2023-03-15T17:44:45.304Z,100034.94
2023-03-15T17:47:12.228Z,100051.16
2023-03-15T17:49:39.469Z,100055.03
2023-03-15T17:52:15.245Z,100057.22
2023-03-15T17:54:41.934Z,100065.22
2023-03-15T17:57:12.299Z,100073.34
2023-03-15T17:59:39.204Z,100078.59
2023-03-15T18:02:13.988Z,100078.34
2023-03-15T18:04:40.633Z,100098.63
2023-03-15T18:07:07.715Z,100088.19
2023-03-15T18:09:34.456Z,100082.97
2023-03-15T18:12:02.219Z,100090.00
2023-03-15T18:14:30.917Z,100087.94
2023-03-15T18:16:57.703Z,100089.75
2023-03-15T18:19:25.010Z,100093.53
2023-03-15T18:21:51.588Z,100100.59
2023-03-15T18:24:19.139Z,100095.34
2023-03-15T18:26:45.703Z,100093.75
2023-03-15T18:29:12.267Z,100101.66
2023-03-15T18:31:38.984Z,100113.31
2023-03-15T18:34:06.698Z,100112.56
2023-03-15T18:36:33.315Z,100113.41
2023-03-15T18:38:59.961Z,100114.50
2023-03-15T18:41:26.728Z,100112.03
2023-03-15T18:43:53.319Z,100120.06
2023-03-15T18:46:25.085Z,100122.63
2023-03-15T18:48:56.068Z,100128.06
2023-03-15T18:51:28.286Z,100127.13
2023-03-15T18:53:56.030Z,100124.44
2023-03-15T18:56:25.662Z,100123.59
2023-03-15T18:58:54.168Z,100137.03
2023-03-15T19:01:25.100Z,100140.78
2023-03-15T19:03:53.052Z,100135.69
2023-03-15T19:06:20.874Z,100148.19
2023-03-15T19:08:53.176Z,100145.50
2023-03-15T19:11:21.520Z,100155.47
2023-03-15T19:13:51.098Z,100152.03
2023-03-15T19:16:21.742Z,100147.91
2023-03-15T19:18:49.620Z,100156.97
2023-03-15T19:21:18.646Z,100165.44
2023-03-15T19:23:45.971Z,100168.41
2023-03-15T19:26:13.834Z,100165.97
2023-03-15T19:28:40.904Z,100167.25
2023-03-15T19:31:07.486Z,100175.69
2023-03-15T19:33:34.856Z,100186.59
2023-03-15T19:36:02.158Z,100189.59
2023-03-15T19:38:29.436Z,100191.41
2023-03-15T19:40:58.570Z,100199.72
2023-03-15T19:43:26.311Z,100204.53
2023-03-15T19:45:52.856Z,100207.63
2023-03-15T19:48:19.435Z,100203.78
2023-03-15T19:50:47.386Z,100212.06
2023-03-15T19:53:13.950Z,100223.28
2023-03-15T19:55:41.457Z,100223.59
2023-03-15T19:58:08.098Z,100223.03
2023-03-15T20:00:34.632Z,100231.91
2023-03-15T20:03:01.275Z,100225.59
2023-03-15T20:05:27.964Z,100230.28
2023-03-15T20:07:54.621Z,100238.28
2023-03-15T20:10:21.893Z,100226.88
2023-03-15T20:12:48.924Z,100232.22
2023-03-15T20:15:19.158Z,100238.09
2023-03-15T20:17:46.079Z,100246.19
2023-03-15T20:20:13.854Z,100246.28
2023-03-15T20:22:42.884Z,100255.03
2023-03-15T20:25:11.685Z,100254.94
2023-03-15T20:27:38.724Z,100259.44
2023-03-15T20:30:08.323Z,100258.47
2023-03-15T20:32:34.921Z,100260.38
2023-03-15T20:35:02.339Z,100256.97
2023-03-15T20:37:30.441Z,100260.59
2023-03-15T20:39:57.042Z,100259.72
2023-03-15T20:42:24.988Z,100261.22
2023-03-15T20:44:51.714Z,100256.66
2023-03-15T20:47:18.923Z,100260.19
2023-03-15T20:49:45.487Z,100259.31
2023-03-15T20:52:12.171Z,100266.38
2023-03-15T20:54:38.693Z,100258.25
2023-03-15T20:57:05.477Z,100264.44
2023-03-15T20:59:32.114Z,100269.78
2023-03-15T21:01:58.785Z,100271.50
2023-03-15T21:04:26.165Z,100270.53
2023-03-15T21:06:52.859Z,100269.56
2023-03-15T21:09:19.742Z,100278.53
2023-03-15T21:11:46.377Z,100270.44
2023-03-15T21:14:12.958Z,100271.09
2023-03-15T21:16:39.804Z,100272.50
2023-03-15T21:19:06.493Z,100267.34
2023-03-15T21:21:33.044Z,100269.81
2023-03-15T21:23:59.560Z,100270.56
2023-03-15T21:26:26.107Z,100268.09
2023-03-15T21:28:52.666Z,100276.00
2023-03-15T21:31:19.625Z,100261.81
2023-03-15T21:33:46.256Z,100262.03
2023-03-15T21:36:12.877Z,100270.03
2023-03-15T21:38:39.486Z,100262.34
2023-03-15T21:41:09.274Z,100267.44
2023-03-15T21:43:36.703Z,100274.72
2023-03-15T21:46:07.379Z,100264.03
2023-03-15T21:48:34.980Z,100272.22
2023-03-15T21:51:02.155Z,100279.41
2023-03-15T21:53:30.209Z,100271.59
2023-03-15T21:56:00.938Z,100270.66
2023-03-15T21:58:28.250Z,100272.34
2023-03-15T22:01:04.587Z,100271.50
2023-03-15T22:03:32.740Z,100271.31
2023-03-15T22:05:59.441Z,100274.72
2023-03-15T22:08:26.298Z,100271.16
2023-03-15T22:10:54.244Z,100271.31
2023-03-15T22:13:21.721Z,100269.47
2023-03-15T22:15:48.296Z,100274.81
2023-03-15T22:18:14.989Z,100273.09
2023-03-15T22:20:41.548Z,100274.91
2023-03-15T22:23:08.436Z,100274.25
2023-03-15T22:25:34.964Z,100280.66
2023-03-15T22:28:02.049Z,100273.84
2023-03-15T22:30:28.729Z,100275.44
2023-03-15T22:32:55.410Z,100281.59
2023-03-15T22:35:22.736Z,100278.09
2023-03-15T22:37:49.510Z,100274.66
2023-03-15T22:40:16.312Z,100276.69
2023-03-15T22:42:43.220Z,100289.19
2023-03-15T22:45:10.448Z,100287.44
2023-03-15T22:47:37.011Z,100289.47
2023-03-15T22:50:03.943Z,100289.59
2023-03-15T22:52:30.505Z,100284.25
2023-03-15T22:54:57.114Z,100290.50
2023-03-15T22:57:23.916Z,100300.53
2023-03-15T22:59:50.472Z,100292.75
2023-03-15T23:02:17.046Z,100297.22
2023-03-15T23:04:45.296Z,100301.59
2023-03-15T23:07:12.416Z,100300.84
2023-03-15T23:09:39.013Z,100303.50
2023-03-15T23:12:05.903Z,100299.13
2023-03-15T23:14:32.477Z,100305.44
2023-03-15T23:16:59.258Z,100308.28
2023-03-15T23:19:25.819Z,100307.53
2023-03-15T23:21:52.401Z,100313.06
2023-03-15T23:24:19.765Z,100310.59
2023-03-15T23:26:46.423Z,100316.97
2023-03-15T23:29:13.424Z,100315.56
2023-03-15T23:31:41.462Z,100326.22
2023-03-15T23:34:08.821Z,100331.75
2023-03-15T23:36:35.642Z,100326.69
2023-03-15T23:39:02.376Z,100339.19
2023-03-15T23:41:29.208Z,100330.72
2023-03-15T23:43:55.760Z,100339.09
2023-03-15T23:46:24.344Z,100342.06
2023-03-15T23:48:52.427Z,100343.41
2023-03-15T23:51:20.160Z,100342.03
2023-03-15T23:53:46.799Z,100346.13
2023-03-15T23:56:13.454Z,100352.31
2023-03-15T23:58:40.073Z,100354.31
